0VG weather

Public forecast

Using degrees Fahrenheit for public forecast. Weather courtesy of forecast.io.

Current aviation weather report (METAR) for Lee County Airport

Retrieved 2020/08/13 14:35 UTC (9 minutes ago):

K0VG 131435Z AUTO 00000KT 10SM FEW005 24/22 A3012 RMK AO2

Closest aviation forecast (TAF) to Lee County Airport

Closest forecast is Tri-Cities Regional TN/VA Airport, 40.5 nm (75.1 km) ESE. Retrieved 2020/08/13 12:34 UTC (2 hours ago):

TAF KTRI 131132Z 1312/1412 00000KT 3SM BR BKN002 BKN250 FM131300 00000KT P6SM FEW100 FM131600 VRB03KT P6SM SCT040 SCT100 FM131900 VRB03KT P6SM VCTS BKN040CB BKN100 PROB30 1321/1324 5SM -TSRA OVC035CB FM140100 00000KT P6SM SCT100 FM141000 00000KT 3SM BR FEW005 FEW250